sensor_id;sensor_type;location;lat;lon;timestamp;P1;durP1;ratioP1;P2;durP2;ratioP2
63975;SDS011;50167;47.958;21.780;2023-07-31T00:04:36;6.22;;;3.52;;
63975;SDS011;50167;47.958;21.780;2023-07-31T00:07:02;8.43;;;3.37;;
63975;SDS011;50167;47.958;21.780;2023-07-31T00:09:31;7.00;;;3.20;;
63975;SDS011;50167;47.958;21.780;2023-07-31T00:12:00;5.10;;;3.20;;
63975;SDS011;50167;47.958;21.780;2023-07-31T00:14:27;10.23;;;3.70;;
63975;SDS011;50167;47.958;21.780;2023-07-31T00:16:53;5.43;;;4.00;;
63975;SDS011;50167;47.958;21.780;2023-07-31T00:19:20;8.30;;;3.17;;
63975;SDS011;50167;47.958;21.780;2023-07-31T00:21:46;6.07;;;3.37;;
63975;SDS011;50167;47.958;21.780;2023-07-31T00:24:12;8.67;;;3.20;;
63975;SDS011;50167;47.958;21.780;2023-07-31T00:26:38;5.30;;;3.53;;
63975;SDS011;50167;47.958;21.780;2023-07-31T00:29:04;4.37;;;3.30;;
63975;SDS011;50167;47.958;21.780;2023-07-31T00:31:31;11.90;;;3.53;;
63975;SDS011;50167;47.958;21.780;2023-07-31T00:33:57;7.57;;;3.83;;
63975;SDS011;50167;47.958;21.780;2023-07-31T00:36:23;3.93;;;3.00;;
63975;SDS011;50167;47.958;21.780;2023-07-31T00:38:50;5.33;;;3.50;;
63975;SDS011;50167;47.958;21.780;2023-07-31T00:41:16;5.20;;;3.60;;
63975;SDS011;50167;47.958;21.780;2023-07-31T00:43:42;6.87;;;4.30;;
63975;SDS011;50167;47.958;21.780;2023-07-31T00:46:09;4.83;;;3.40;;
63975;SDS011;50167;47.958;21.780;2023-07-31T00:48:35;5.27;;;2.83;;
63975;SDS011;50167;47.958;21.780;2023-07-31T00:51:03;3.97;;;3.23;;
63975;SDS011;50167;47.958;21.780;2023-07-31T00:53:29;4.30;;;3.23;;
63975;SDS011;50167;47.958;21.780;2023-07-31T00:55:55;9.70;;;3.87;;
63975;SDS011;50167;47.958;21.780;2023-07-31T00:58:23;7.67;;;2.87;;
63975;SDS011;50167;47.958;21.780;2023-07-31T01:00:49;3.43;;;2.73;;
63975;SDS011;50167;47.958;21.780;2023-07-31T01:03:16;4.70;;;3.23;;
63975;SDS011;50167;47.958;21.780;2023-07-31T01:05:49;5.00;;;3.20;;
63975;SDS011;50167;47.958;21.780;2023-07-31T01:11:04;4.80;;;3.40;;
63975;SDS011;50167;47.958;21.780;2023-07-31T01:13:49;3.90;;;3.50;;
63975;SDS011;50167;47.958;21.780;2023-07-31T01:16:15;5.57;;;3.70;;
63975;SDS011;50167;47.958;21.780;2023-07-31T01:18:42;4.97;;;3.73;;
63975;SDS011;50167;47.958;21.780;2023-07-31T01:26:36;7.53;;;4.03;;
63975;SDS011;50167;47.958;21.780;2023-07-31T01:31:42;6.93;;;4.10;;
63975;SDS011;50167;47.958;21.780;2023-07-31T01:34:12;5.97;;;3.80;;
63975;SDS011;50167;47.958;21.780;2023-07-31T01:36:41;9.30;;;3.67;;
63975;SDS011;50167;47.958;21.780;2023-07-31T01:39:07;7.60;;;4.10;;
63975;SDS011;50167;47.958;21.780;2023-07-31T01:41:34;4.97;;;2.97;;
63975;SDS011;50167;47.958;21.780;2023-07-31T01:44:00;9.67;;;4.83;;
63975;SDS011;50167;47.958;21.780;2023-07-31T01:46:26;4.93;;;3.60;;
63975;SDS011;50167;47.958;21.780;2023-07-31T01:48:54;7.40;;;4.13;;
63975;SDS011;50167;47.958;21.780;2023-07-31T01:51:20;5.40;;;3.73;;
63975;SDS011;50167;47.958;21.780;2023-07-31T01:53:46;5.37;;;3.33;;
63975;SDS011;50167;47.958;21.780;2023-07-31T01:56:13;5.83;;;3.90;;
63975;SDS011;50167;47.958;21.780;2023-07-31T01:58:39;8.80;;;4.57;;
63975;SDS011;50167;47.958;21.780;2023-07-31T02:01:05;5.47;;;3.67;;
63975;SDS011;50167;47.958;21.780;2023-07-31T02:03:32;5.50;;;3.97;;
63975;SDS011;50167;47.958;21.780;2023-07-31T02:05:58;7.13;;;3.37;;
63975;SDS011;50167;47.958;21.780;2023-07-31T02:08:24;4.83;;;3.57;;
63975;SDS011;50167;47.958;21.780;2023-07-31T02:10:51;5.00;;;3.50;;
63975;SDS011;50167;47.958;21.780;2023-07-31T02:13:17;4.67;;;3.90;;
63975;SDS011;50167;47.958;21.780;2023-07-31T02:15:44;7.30;;;3.97;;
63975;SDS011;50167;47.958;21.780;2023-07-31T02:18:11;9.23;;;3.63;;
63975;SDS011;50167;47.958;21.780;2023-07-31T02:20:37;6.73;;;3.83;;
63975;SDS011;50167;47.958;21.780;2023-07-31T02:23:03;5.57;;;3.97;;
63975;SDS011;50167;47.958;21.780;2023-07-31T02:25:29;6.33;;;3.57;;
63975;SDS011;50167;47.958;21.780;2023-07-31T02:27:55;4.00;;;3.13;;
63975;SDS011;50167;47.958;21.780;2023-07-31T02:30:21;4.37;;;3.10;;
63975;SDS011;50167;47.958;21.780;2023-07-31T02:32:48;4.93;;;3.53;;
63975;SDS011;50167;47.958;21.780;2023-07-31T02:35:14;5.50;;;3.53;;
63975;SDS011;50167;47.958;21.780;2023-07-31T02:37:41;9.17;;;4.03;;
63975;SDS011;50167;47.958;21.780;2023-07-31T02:40:08;9.17;;;4.20;;
63975;SDS011;50167;47.958;21.780;2023-07-31T02:42:40;5.67;;;2.97;;
63975;SDS011;50167;47.958;21.780;2023-07-31T02:45:04;6.00;;;3.73;;
63975;SDS011;50167;47.958;21.780;2023-07-31T02:47:31;7.20;;;4.10;;
63975;SDS011;50167;47.958;21.780;2023-07-31T02:49:57;5.53;;;3.93;;
63975;SDS011;50167;47.958;21.780;2023-07-31T02:52:25;8.05;;;3.67;;
63975;SDS011;50167;47.958;21.780;2023-07-31T02:54:52;5.37;;;3.67;;
63975;SDS011;50167;47.958;21.780;2023-07-31T02:57:18;7.47;;;3.73;;
63975;SDS011;50167;47.958;21.780;2023-07-31T02:59:44;5.23;;;3.47;;
63975;SDS011;50167;47.958;21.780;2023-07-31T03:02:10;7.10;;;3.90;;
63975;SDS011;50167;47.958;21.780;2023-07-31T03:04:38;5.23;;;3.73;;
63975;SDS011;50167;47.958;21.780;2023-07-31T03:07:05;5.47;;;4.10;;
63975;SDS011;50167;47.958;21.780;2023-07-31T03:09:31;6.37;;;3.40;;
63975;SDS011;50167;47.958;21.780;2023-07-31T03:11:57;6.90;;;3.73;;
63975;SDS011;50167;47.958;21.780;2023-07-31T03:14:24;5.17;;;4.17;;
63975;SDS011;50167;47.958;21.780;2023-07-31T03:16:52;6.33;;;3.83;;
63975;SDS011;50167;47.958;21.780;2023-07-31T03:19:19;5.63;;;3.70;;
63975;SDS011;50167;47.958;21.780;2023-07-31T03:21:45;5.43;;;4.20;;
63975;SDS011;50167;47.958;21.780;2023-07-31T03:24:11;7.77;;;3.40;;
63975;SDS011;50167;47.958;21.780;2023-07-31T03:26:37;6.77;;;4.23;;
63975;SDS011;50167;47.958;21.780;2023-07-31T03:29:06;6.70;;;4.47;;
63975;SDS011;50167;47.958;21.780;2023-07-31T03:31:34;7.23;;;3.93;;
63975;SDS011;50167;47.958;21.780;2023-07-31T03:34:00;5.43;;;3.93;;
63975;SDS011;50167;47.958;21.780;2023-07-31T03:36:26;7.17;;;3.77;;
63975;SDS011;50167;47.958;21.780;2023-07-31T03:38:53;5.03;;;3.87;;
63975;SDS011;50167;47.958;21.780;2023-07-31T03:41:19;5.13;;;3.47;;
63975;SDS011;50167;47.958;21.780;2023-07-31T03:43:47;7.27;;;4.30;;
63975;SDS011;50167;47.958;21.780;2023-07-31T03:46:17;5.83;;;3.67;;
63975;SDS011;50167;47.958;21.780;2023-07-31T03:48:44;6.23;;;3.87;;
63975;SDS011;50167;47.958;21.780;2023-07-31T03:51:10;6.93;;;3.63;;
63975;SDS011;50167;47.958;21.780;2023-07-31T03:53:36;4.93;;;3.83;;
63975;SDS011;50167;47.958;21.780;2023-07-31T03:56:02;6.60;;;3.80;;
63975;SDS011;50167;47.958;21.780;2023-07-31T03:58:29;11.87;;;4.70;;
63975;SDS011;50167;47.958;21.780;2023-07-31T04:00:55;11.40;;;4.83;;
63975;SDS011;50167;47.958;21.780;2023-07-31T04:03:21;5.70;;;4.30;;
63975;SDS011;50167;47.958;21.780;2023-07-31T04:05:47;8.37;;;4.30;;
63975;SDS011;50167;47.958;21.780;2023-07-31T04:08:13;7.93;;;4.30;;
63975;SDS011;50167;47.958;21.780;2023-07-31T04:10:41;7.93;;;4.80;;
63975;SDS011;50167;47.958;21.780;2023-07-31T04:13:08;7.10;;;3.93;;
63975;SDS011;50167;47.958;21.780;2023-07-31T04:15:34;5.07;;;3.73;;
63975;SDS011;50167;47.958;21.780;2023-07-31T04:18:00;5.00;;;4.00;;
63975;SDS011;50167;47.958;21.780;2023-07-31T04:20:26;5.40;;;3.40;;
63975;SDS011;50167;47.958;21.780;2023-07-31T04:22:53;7.13;;;3.80;;
63975;SDS011;50167;47.958;21.780;2023-07-31T04:25:19;5.80;;;4.23;;
63975;SDS011;50167;47.958;21.780;2023-07-31T04:27:45;5.47;;;3.57;;
63975;SDS011;50167;47.958;21.780;2023-07-31T04:30:11;7.20;;;4.80;;
63975;SDS011;50167;47.958;21.780;2023-07-31T04:32:37;5.33;;;4.30;;
63975;SDS011;50167;47.958;21.780;2023-07-31T04:35:04;5.78;;;3.75;;
63975;SDS011;50167;47.958;21.780;2023-07-31T04:37:30;9.78;;;4.00;;
63975;SDS011;50167;47.958;21.780;2023-07-31T04:39:57;4.42;;;3.90;;
63975;SDS011;50167;47.958;21.780;2023-07-31T04:42:23;11.38;;;5.65;;
63975;SDS011;50167;47.958;21.780;2023-07-31T04:44:49;6.10;;;5.47;;
63975;SDS011;50167;47.958;21.780;2023-07-31T04:47:15;5.80;;;3.87;;
63975;SDS011;50167;47.958;21.780;2023-07-31T04:49:41;7.12;;;4.05;;
63975;SDS011;50167;47.958;21.780;2023-07-31T04:52:07;9.60;;;4.03;;
63975;SDS011;50167;47.958;21.780;2023-07-31T04:54:34;6.28;;;3.52;;
63975;SDS011;50167;47.958;21.780;2023-07-31T04:57:00;5.28;;;4.10;;
63975;SDS011;50167;47.958;21.780;2023-07-31T04:59:26;7.10;;;3.80;;
63975;SDS011;50167;47.958;21.780;2023-07-31T05:01:52;4.00;;;3.25;;
63975;SDS011;50167;47.958;21.780;2023-07-31T05:04:18;5.97;;;3.47;;
63975;SDS011;50167;47.958;21.780;2023-07-31T05:06:45;7.22;;;4.37;;
63975;SDS011;50167;47.958;21.780;2023-07-31T05:09:11;5.53;;;3.90;;
63975;SDS011;50167;47.958;21.780;2023-07-31T05:11:38;6.20;;;3.58;;
63975;SDS011;50167;47.958;21.780;2023-07-31T05:14:05;4.62;;;4.00;;
63975;SDS011;50167;47.958;21.780;2023-07-31T05:16:34;4.40;;;3.22;;
63975;SDS011;50167;47.958;21.780;2023-07-31T05:19:01;5.80;;;3.75;;
63975;SDS011;50167;47.958;21.780;2023-07-31T05:21:27;8.05;;;3.10;;
63975;SDS011;50167;47.958;21.780;2023-07-31T05:23:54;4.80;;;3.37;;
63975;SDS011;50167;47.958;21.780;2023-07-31T05:26:20;5.53;;;3.47;;
63975;SDS011;50167;47.958;21.780;2023-07-31T05:28:46;14.60;;;3.37;;
63975;SDS011;50167;47.958;21.780;2023-07-31T05:31:12;6.60;;;3.30;;
63975;SDS011;50167;47.958;21.780;2023-07-31T05:33:39;6.12;;;2.47;;
63975;SDS011;50167;47.958;21.780;2023-07-31T05:36:05;4.25;;;2.33;;
63975;SDS011;50167;47.958;21.780;2023-07-31T05:38:31;3.50;;;2.45;;
63975;SDS011;50167;47.958;21.780;2023-07-31T05:40:57;2.90;;;2.30;;
63975;SDS011;50167;47.958;21.780;2023-07-31T05:43:23;2.92;;;2.22;;
63975;SDS011;50167;47.958;21.780;2023-07-31T05:45:50;8.18;;;2.55;;
63975;SDS011;50167;47.958;21.780;2023-07-31T05:48:16;5.08;;;2.90;;
63975;SDS011;50167;47.958;21.780;2023-07-31T05:50:43;3.83;;;2.30;;
63975;SDS011;50167;47.958;21.780;2023-07-31T05:53:10;4.62;;;2.60;;
63975;SDS011;50167;47.958;21.780;2023-07-31T05:55:36;4.22;;;2.42;;
63975;SDS011;50167;47.958;21.780;2023-07-31T05:58:02;5.28;;;2.47;;
63975;SDS011;50167;47.958;21.780;2023-07-31T06:00:29;4.33;;;2.17;;
63975;SDS011;50167;47.958;21.780;2023-07-31T06:02:55;2.90;;;2.12;;
63975;SDS011;50167;47.958;21.780;2023-07-31T06:05:21;4.90;;;2.37;;
63975;SDS011;50167;47.958;21.780;2023-07-31T06:07:47;2.60;;;2.22;;
63975;SDS011;50167;47.958;21.780;2023-07-31T06:10:14;6.33;;;2.70;;
63975;SDS011;50167;47.958;21.780;2023-07-31T06:12:40;4.10;;;2.40;;
63975;SDS011;50167;47.958;21.780;2023-07-31T06:15:06;3.60;;;2.70;;
63975;SDS011;50167;47.958;21.780;2023-07-31T06:17:33;2.47;;;1.75;;
63975;SDS011;50167;47.958;21.780;2023-07-31T06:19:59;4.75;;;2.10;;
63975;SDS011;50167;47.958;21.780;2023-07-31T06:22:25;4.65;;;2.70;;
63975;SDS011;50167;47.958;21.780;2023-07-31T06:24:52;5.90;;;3.02;;
63975;SDS011;50167;47.958;21.780;2023-07-31T06:27:18;6.30;;;3.58;;
63975;SDS011;50167;47.958;21.780;2023-07-31T06:29:44;6.22;;;3.20;;
63975;SDS011;50167;47.958;21.780;2023-07-31T06:32:10;6.47;;;3.10;;
63975;SDS011;50167;47.958;21.780;2023-07-31T06:34:36;5.22;;;3.00;;
63975;SDS011;50167;47.958;21.780;2023-07-31T06:37:02;3.33;;;2.35;;
63975;SDS011;50167;47.958;21.780;2023-07-31T06:39:29;6.40;;;3.02;;
63975;SDS011;50167;47.958;21.780;2023-07-31T06:41:55;4.58;;;2.62;;
63975;SDS011;50167;47.958;21.780;2023-07-31T06:44:21;3.75;;;2.47;;
63975;SDS011;50167;47.958;21.780;2023-07-31T06:46:47;3.35;;;2.20;;
63975;SDS011;50167;47.958;21.780;2023-07-31T06:49:13;6.42;;;3.08;;
63975;SDS011;50167;47.958;21.780;2023-07-31T06:51:43;8.03;;;3.42;;
63975;SDS011;50167;47.958;21.780;2023-07-31T06:54:09;3.00;;;2.00;;
63975;SDS011;50167;47.958;21.780;2023-07-31T06:56:35;7.35;;;2.33;;
63975;SDS011;50167;47.958;21.780;2023-07-31T06:59:02;2.42;;;1.70;;
63975;SDS011;50167;47.958;21.780;2023-07-31T07:01:29;4.67;;;2.02;;
63975;SDS011;50167;47.958;21.780;2023-07-31T07:03:55;2.37;;;1.95;;
63975;SDS011;50167;47.958;21.780;2023-07-31T07:06:22;6.40;;;1.75;;
63975;SDS011;50167;47.958;21.780;2023-07-31T07:08:48;3.05;;;1.87;;
63975;SDS011;50167;47.958;21.780;2023-07-31T07:11:14;4.05;;;1.80;;
63975;SDS011;50167;47.958;21.780;2023-07-31T07:13:40;3.00;;;2.10;;
63975;SDS011;50167;47.958;21.780;2023-07-31T07:16:06;3.45;;;2.30;;
63975;SDS011;50167;47.958;21.780;2023-07-31T07:18:33;7.30;;;2.10;;
63975;SDS011;50167;47.958;21.780;2023-07-31T07:21:00;2.87;;;2.58;;
63975;SDS011;50167;47.958;21.780;2023-07-31T07:23:27;5.35;;;2.20;;
63975;SDS011;50167;47.958;21.780;2023-07-31T07:25:59;3.17;;;2.08;;
63975;SDS011;50167;47.958;21.780;2023-07-31T07:28:25;6.10;;;2.10;;
63975;SDS011;50167;47.958;21.780;2023-07-31T07:30:53;5.03;;;2.58;;
63975;SDS011;50167;47.958;21.780;2023-07-31T07:33:20;4.17;;;2.42;;
63975;SDS011;50167;47.958;21.780;2023-07-31T07:35:46;4.17;;;2.60;;
63975;SDS011;50167;47.958;21.780;2023-07-31T07:38:17;3.02;;;2.33;;
63975;SDS011;50167;47.958;21.780;2023-07-31T07:40:41;3.85;;;2.42;;
63975;SDS011;50167;47.958;21.780;2023-07-31T07:43:07;4.33;;;2.20;;
63975;SDS011;50167;47.958;21.780;2023-07-31T07:45:34;5.45;;;2.35;;
63975;SDS011;50167;47.958;21.780;2023-07-31T07:48:00;6.03;;;3.12;;
63975;SDS011;50167;47.958;21.780;2023-07-31T07:50:26;6.83;;;3.20;;
63975;SDS011;50167;47.958;21.780;2023-07-31T07:52:52;8.95;;;2.90;;
63975;SDS011;50167;47.958;21.780;2023-07-31T07:55:19;4.53;;;2.72;;
63975;SDS011;50167;47.958;21.780;2023-07-31T07:57:45;6.08;;;2.75;;
63975;SDS011;50167;47.958;21.780;2023-07-31T08:00:12;4.55;;;2.37;;
63975;SDS011;50167;47.958;21.780;2023-07-31T08:02:39;3.87;;;2.27;;
63975;SDS011;50167;47.958;21.780;2023-07-31T08:05:05;7.17;;;2.75;;
63975;SDS011;50167;47.958;21.780;2023-07-31T08:07:32;5.80;;;2.60;;
63975;SDS011;50167;47.958;21.780;2023-07-31T08:09:58;6.67;;;2.25;;
63975;SDS011;50167;47.958;21.780;2023-07-31T08:12:24;2.60;;;2.30;;
63975;SDS011;50167;47.958;21.780;2023-07-31T08:14:51;3.67;;;2.12;;
63975;SDS011;50167;47.958;21.780;2023-07-31T08:17:17;2.60;;;2.20;;
63975;SDS011;50167;47.958;21.780;2023-07-31T08:19:43;3.75;;;2.08;;
63975;SDS011;50167;47.958;21.780;2023-07-31T08:22:10;3.90;;;2.60;;
63975;SDS011;50167;47.958;21.780;2023-07-31T08:24:36;2.27;;;1.75;;
63975;SDS011;50167;47.958;21.780;2023-07-31T08:27:03;3.02;;;2.22;;
63975;SDS011;50167;47.958;21.780;2023-07-31T08:29:31;2.90;;;1.92;;
63975;SDS011;50167;47.958;21.780;2023-07-31T08:31:57;10.88;;;2.20;;
63975;SDS011;50167;47.958;21.780;2023-07-31T08:34:23;4.20;;;1.90;;
63975;SDS011;50167;47.958;21.780;2023-07-31T08:36:51;4.55;;;1.80;;
63975;SDS011;50167;47.958;21.780;2023-07-31T08:39:17;4.67;;;2.10;;
63975;SDS011;50167;47.958;21.780;2023-07-31T08:41:43;4.90;;;3.15;;
63975;SDS011;50167;47.958;21.780;2023-07-31T08:44:10;3.02;;;2.10;;
63975;SDS011;50167;47.958;21.780;2023-07-31T08:46:39;2.85;;;2.27;;
63975;SDS011;50167;47.958;21.780;2023-07-31T08:49:06;1.80;;;1.62;;
63975;SDS011;50167;47.958;21.780;2023-07-31T08:51:34;7.08;;;2.40;;
63975;SDS011;50167;47.958;21.780;2023-07-31T08:54:02;2.70;;;2.12;;
63975;SDS011;50167;47.958;21.780;2023-07-31T08:58:58;3.92;;;2.05;;
63975;SDS011;50167;47.958;21.780;2023-07-31T09:01:28;7.50;;;2.47;;
63975;SDS011;50167;47.958;21.780;2023-07-31T09:03:57;7.40;;;2.43;;
63975;SDS011;50167;47.958;21.780;2023-07-31T09:06:27;3.35;;;2.52;;
63975;SDS011;50167;47.958;21.780;2023-07-31T09:08:55;2.62;;;1.92;;
63975;SDS011;50167;47.958;21.780;2023-07-31T09:11:21;5.45;;;2.33;;
63975;SDS011;50167;47.958;21.780;2023-07-31T09:13:49;2.45;;;2.25;;
63975;SDS011;50167;47.958;21.780;2023-07-31T09:16:15;2.40;;;2.20;;
63975;SDS011;50167;47.958;21.780;2023-07-31T09:18:54;2.58;;;2.27;;
63975;SDS011;50167;47.958;21.780;2023-07-31T09:21:23;2.75;;;2.45;;
63975;SDS011;50167;47.958;21.780;2023-07-31T09:23:51;2.25;;;1.82;;
63975;SDS011;50167;47.958;21.780;2023-07-31T09:26:35;4.65;;;2.05;;
63975;SDS011;50167;47.958;21.780;2023-07-31T09:29:06;6.20;;;2.35;;
63975;SDS011;50167;47.958;21.780;2023-07-31T09:31:41;6.12;;;2.67;;
63975;SDS011;50167;47.958;21.780;2023-07-31T09:34:08;5.08;;;2.60;;
63975;SDS011;50167;47.958;21.780;2023-07-31T09:36:43;3.10;;;2.17;;
63975;SDS011;50167;47.958;21.780;2023-07-31T09:39:12;7.83;;;2.85;;
63975;SDS011;50167;47.958;21.780;2023-07-31T09:41:47;3.97;;;2.83;;
63975;SDS011;50167;47.958;21.780;2023-07-31T09:44:21;5.72;;;2.40;;
63975;SDS011;50167;47.958;21.780;2023-07-31T09:47:06;5.67;;;2.25;;
63975;SDS011;50167;47.958;21.780;2023-07-31T09:49:34;7.00;;;2.90;;
63975;SDS011;50167;47.958;21.780;2023-07-31T09:52:00;6.40;;;2.17;;
63975;SDS011;50167;47.958;21.780;2023-07-31T09:54:26;6.25;;;2.40;;
63975;SDS011;50167;47.958;21.780;2023-07-31T09:56:53;6.08;;;2.65;;
63975;SDS011;50167;47.958;21.780;2023-07-31T09:59:22;3.52;;;2.50;;
63975;SDS011;50167;47.958;21.780;2023-07-31T10:01:50;7.22;;;2.60;;
63975;SDS011;50167;47.958;21.780;2023-07-31T10:04:18;2.90;;;2.42;;
63975;SDS011;50167;47.958;21.780;2023-07-31T10:06:49;2.90;;;2.15;;
63975;SDS011;50167;47.958;21.780;2023-07-31T10:09:19;6.10;;;3.10;;
63975;SDS011;50167;47.958;21.780;2023-07-31T10:11:50;4.42;;;2.10;;
63975;SDS011;50167;47.958;21.780;2023-07-31T10:14:21;5.15;;;2.30;;
63975;SDS011;50167;47.958;21.780;2023-07-31T10:16:49;2.58;;;2.35;;
63975;SDS011;50167;47.958;21.780;2023-07-31T10:19:16;3.02;;;2.22;;
63975;SDS011;50167;47.958;21.780;2023-07-31T10:21:45;2.77;;;2.20;;
63975;SDS011;50167;47.958;21.780;2023-07-31T10:24:11;4.72;;;2.22;;
63975;SDS011;50167;47.958;21.780;2023-07-31T10:26:38;6.35;;;2.27;;
63975;SDS011;50167;47.958;21.780;2023-07-31T10:29:05;2.47;;;2.22;;
63975;SDS011;50167;47.958;21.780;2023-07-31T10:31:32;2.45;;;2.05;;
63975;SDS011;50167;47.958;21.780;2023-07-31T10:33:59;4.25;;;3.10;;
63975;SDS011;50167;47.958;21.780;2023-07-31T10:36:26;6.78;;;2.08;;
63975;SDS011;50167;47.958;21.780;2023-07-31T10:38:52;7.80;;;3.72;;
63975;SDS011;50167;47.958;21.780;2023-07-31T10:41:26;6.85;;;2.37;;
63975;SDS011;50167;47.958;21.780;2023-07-31T10:43:57;2.05;;;1.90;;
63975;SDS011;50167;47.958;21.780;2023-07-31T10:46:25;3.10;;;2.58;;
63975;SDS011;50167;47.958;21.780;2023-07-31T10:48:57;3.22;;;2.20;;
63975;SDS011;50167;47.958;21.780;2023-07-31T10:51:34;7.65;;;2.47;;
63975;SDS011;50167;47.958;21.780;2023-07-31T10:54:11;5.28;;;2.83;;
63975;SDS011;50167;47.958;21.780;2023-07-31T10:56:46;3.65;;;2.42;;
63975;SDS011;50167;47.958;21.780;2023-07-31T10:59:18;5.40;;;2.50;;
63975;SDS011;50167;47.958;21.780;2023-07-31T11:01:52;5.58;;;2.52;;
63975;SDS011;50167;47.958;21.780;2023-07-31T11:04:22;3.83;;;2.35;;
63975;SDS011;50167;47.958;21.780;2023-07-31T11:06:55;5.05;;;2.83;;
63975;SDS011;50167;47.958;21.780;2023-07-31T11:09:31;3.33;;;2.33;;
63975;SDS011;50167;47.958;21.780;2023-07-31T11:11:59;3.17;;;2.25;;
63975;SDS011;50167;47.958;21.780;2023-07-31T11:14:25;4.22;;;2.35;;
63975;SDS011;50167;47.958;21.780;2023-07-31T11:16:52;2.98;;;2.52;;
63975;SDS011;50167;47.958;21.780;2023-07-31T11:19:26;5.60;;;2.80;;
63975;SDS011;50167;47.958;21.780;2023-07-31T11:21:52;2.67;;;2.35;;
63975;SDS011;50167;47.958;21.780;2023-07-31T11:24:19;3.62;;;2.55;;
63975;SDS011;50167;47.958;21.780;2023-07-31T11:26:49;5.53;;;2.52;;
63975;SDS011;50167;47.958;21.780;2023-07-31T11:29:22;4.85;;;2.60;;
63975;SDS011;50167;47.958;21.780;2023-07-31T11:31:46;4.67;;;2.30;;
63975;SDS011;50167;47.958;21.780;2023-07-31T11:34:14;2.60;;;2.12;;
63975;SDS011;50167;47.958;21.780;2023-07-31T11:36:40;4.67;;;2.50;;
63975;SDS011;50167;47.958;21.780;2023-07-31T11:39:09;2.60;;;2.15;;
63975;SDS011;50167;47.958;21.780;2023-07-31T11:41:36;5.12;;;2.45;;
63975;SDS011;50167;47.958;21.780;2023-07-31T11:44:06;4.70;;;2.20;;
63975;SDS011;50167;47.958;21.780;2023-07-31T11:46:32;2.72;;;2.30;;
63975;SDS011;50167;47.958;21.780;2023-07-31T11:48:59;2.70;;;2.22;;
63975;SDS011;50167;47.958;21.780;2023-07-31T11:51:26;5.40;;;2.15;;
63975;SDS011;50167;47.958;21.780;2023-07-31T11:53:56;2.20;;;1.85;;
63975;SDS011;50167;47.958;21.780;2023-07-31T11:56:24;2.90;;;2.40;;
63975;SDS011;50167;47.958;21.780;2023-07-31T11:58:53;2.95;;;1.72;;
63975;SDS011;50167;47.958;21.780;2023-07-31T12:01:22;3.17;;;2.00;;
63975;SDS011;50167;47.958;21.780;2023-07-31T12:03:50;11.05;;;2.75;;
63975;SDS011;50167;47.958;21.780;2023-07-31T12:06:17;7.55;;;2.50;;
63975;SDS011;50167;47.958;21.780;2023-07-31T12:08:46;5.60;;;2.37;;
63975;SDS011;50167;47.958;21.780;2023-07-31T12:11:13;2.52;;;1.42;;
63975;SDS011;50167;47.958;21.780;2023-07-31T12:13:40;2.52;;;1.98;;
63975;SDS011;50167;47.958;21.780;2023-07-31T12:16:06;2.02;;;1.90;;
63975;SDS011;50167;47.958;21.780;2023-07-31T12:18:34;2.90;;;1.65;;
63975;SDS011;50167;47.958;21.780;2023-07-31T12:21:04;3.15;;;1.98;;
63975;SDS011;50167;47.958;21.780;2023-07-31T12:23:34;4.70;;;2.37;;
63975;SDS011;50167;47.958;21.780;2023-07-31T12:26:13;3.47;;;2.60;;
63975;SDS011;50167;47.958;21.780;2023-07-31T12:28:44;3.30;;;2.12;;
63975;SDS011;50167;47.958;21.780;2023-07-31T12:33:46;2.90;;;2.25;;
63975;SDS011;50167;47.958;21.780;2023-07-31T12:36:16;2.45;;;2.25;;
63975;SDS011;50167;47.958;21.780;2023-07-31T12:38:46;5.08;;;2.00;;
63975;SDS011;50167;47.958;21.780;2023-07-31T12:41:13;2.42;;;1.90;;
63975;SDS011;50167;47.958;21.780;2023-07-31T12:43:40;2.67;;;2.00;;
63975;SDS011;50167;47.958;21.780;2023-07-31T12:46:08;5.75;;;2.37;;
63975;SDS011;50167;47.958;21.780;2023-07-31T12:48:36;5.42;;;2.20;;
63975;SDS011;50167;47.958;21.780;2023-07-31T12:51:03;5.33;;;2.00;;
63975;SDS011;50167;47.958;21.780;2023-07-31T12:53:31;7.15;;;1.90;;
63975;SDS011;50167;47.958;21.780;2023-07-31T12:55:58;2.58;;;1.52;;
63975;SDS011;50167;47.958;21.780;2023-07-31T12:58:25;4.03;;;1.90;;
63975;SDS011;50167;47.958;21.780;2023-07-31T13:00:51;2.87;;;2.40;;
63975;SDS011;50167;47.958;21.780;2023-07-31T13:03:17;4.03;;;2.22;;
63975;SDS011;50167;47.958;21.780;2023-07-31T13:05:43;15.88;;;2.47;;
63975;SDS011;50167;47.958;21.780;2023-07-31T13:11:51;3.42;;;2.12;;
63975;SDS011;50167;47.958;21.780;2023-07-31T13:14:27;3.37;;;1.98;;
63975;SDS011;50167;47.958;21.780;2023-07-31T13:16:53;9.20;;;3.10;;
63975;SDS011;50167;47.958;21.780;2023-07-31T13:19:20;3.50;;;1.90;;
63975;SDS011;50167;47.958;21.780;2023-07-31T13:21:46;4.95;;;2.22;;
63975;SDS011;50167;47.958;21.780;2023-07-31T13:24:13;2.50;;;1.80;;
63975;SDS011;50167;47.958;21.780;2023-07-31T13:26:39;5.42;;;1.70;;
63975;SDS011;50167;47.958;21.780;2023-07-31T13:29:05;1.70;;;1.60;;
63975;SDS011;50167;47.958;21.780;2023-07-31T13:31:31;2.47;;;1.90;;
63975;SDS011;50167;47.958;21.780;2023-07-31T13:33:57;2.47;;;1.72;;
63975;SDS011;50167;47.958;21.780;2023-07-31T13:36:23;3.30;;;2.10;;
63975;SDS011;50167;47.958;21.780;2023-07-31T13:38:50;3.27;;;2.17;;
63975;SDS011;50167;47.958;21.780;2023-07-31T13:41:16;4.65;;;2.30;;
63975;SDS011;50167;47.958;21.780;2023-07-31T13:43:42;2.37;;;1.80;;
63975;SDS011;50167;47.958;21.780;2023-07-31T13:46:08;3.20;;;2.00;;
63975;SDS011;50167;47.958;21.780;2023-07-31T13:48:36;4.28;;;1.80;;
63975;SDS011;50167;47.958;21.780;2023-07-31T13:51:03;2.52;;;1.85;;
63975;SDS011;50167;47.958;21.780;2023-07-31T13:53:29;5.17;;;1.62;;
63975;SDS011;50167;47.958;21.780;2023-07-31T13:55:56;7.62;;;1.77;;
63975;SDS011;50167;47.958;21.780;2023-07-31T13:58:22;2.60;;;2.08;;
63975;SDS011;50167;47.958;21.780;2023-07-31T14:00:48;2.22;;;1.98;;
63975;SDS011;50167;47.958;21.780;2023-07-31T14:03:14;37.85;;;2.95;;
63975;SDS011;50167;47.958;21.780;2023-07-31T14:05:41;9.33;;;2.05;;
63975;SDS011;50167;47.958;21.780;2023-07-31T14:08:07;2.95;;;1.90;;
63975;SDS011;50167;47.958;21.780;2023-07-31T14:10:33;5.72;;;1.92;;
63975;SDS011;50167;47.958;21.780;2023-07-31T14:12:59;11.08;;;2.60;;
63975;SDS011;50167;47.958;21.780;2023-07-31T14:15:25;2.55;;;2.20;;
63975;SDS011;50167;47.958;21.780;2023-07-31T14:17:51;3.12;;;1.90;;
63975;SDS011;50167;47.958;21.780;2023-07-31T14:20:18;4.78;;;1.92;;
63975;SDS011;50167;47.958;21.780;2023-07-31T14:22:44;8.45;;;2.22;;
63975;SDS011;50167;47.958;21.780;2023-07-31T14:25:11;1.95;;;1.77;;
63975;SDS011;50167;47.958;21.780;2023-07-31T14:27:37;6.30;;;1.62;;
63975;SDS011;50167;47.958;21.780;2023-07-31T14:30:03;2.45;;;1.52;;
63975;SDS011;50167;47.958;21.780;2023-07-31T14:32:31;2.47;;;2.10;;
63975;SDS011;50167;47.958;21.780;2023-07-31T14:34:57;3.20;;;1.70;;
63975;SDS011;50167;47.958;21.780;2023-07-31T14:37:25;2.17;;;1.98;;
63975;SDS011;50167;47.958;21.780;2023-07-31T14:39:53;3.58;;;1.90;;
63975;SDS011;50167;47.958;21.780;2023-07-31T14:42:19;21.62;;;2.58;;
63975;SDS011;50167;47.958;21.780;2023-07-31T14:44:45;27.45;;;3.08;;
63975;SDS011;50167;47.958;21.780;2023-07-31T14:47:12;3.62;;;1.90;;
63975;SDS011;50167;47.958;21.780;2023-07-31T14:49:38;3.22;;;1.77;;
63975;SDS011;50167;47.958;21.780;2023-07-31T14:52:05;4.83;;;1.80;;
63975;SDS011;50167;47.958;21.780;2023-07-31T14:54:32;3.40;;;2.00;;
63975;SDS011;50167;47.958;21.780;2023-07-31T14:56:58;5.37;;;2.15;;